sensor_id;sensor_type;location;lat;lon;timestamp;P1;durP1;ratioP1;P2;durP2;ratioP2
7517;SDS011;3800;48.922;9.444;2022-09-09T00:01:22;3.00;;;1.80;;
7517;SDS011;3800;48.922;9.444;2022-09-09T00:04:19;3.17;;;2.00;;
7517;SDS011;3800;48.922;9.444;2022-09-09T00:06:50;3.27;;;1.80;;
7517;SDS011;3800;48.922;9.444;2022-09-09T00:09:19;3.73;;;1.80;;
7517;SDS011;3800;48.922;9.444;2022-09-09T00:11:51;2.20;;;1.60;;
7517;SDS011;3800;48.922;9.444;2022-09-09T00:14:23;4.20;;;1.90;;
7517;SDS011;3800;48.922;9.444;2022-09-09T00:16:55;5.47;;;2.17;;
7517;SDS011;3800;48.922;9.444;2022-09-09T00:19:24;2.87;;;1.83;;
7517;SDS011;3800;48.922;9.444;2022-09-09T00:22:15;2.13;;;1.77;;
7517;SDS011;3800;48.922;9.444;2022-09-09T00:24:45;3.63;;;1.90;;
7517;SDS011;3800;48.922;9.444;2022-09-09T00:27:19;2.10;;;1.80;;
7517;SDS011;3800;48.922;9.444;2022-09-09T00:29:47;3.43;;;1.83;;
7517;SDS011;3800;48.922;9.444;2022-09-09T00:32:17;2.90;;;1.70;;
7517;SDS011;3800;48.922;9.444;2022-09-09T00:34:48;2.17;;;1.60;;
7517;SDS011;3800;48.922;9.444;2022-09-09T00:37:18;3.30;;;1.87;;
7517;SDS011;3800;48.922;9.444;2022-09-09T00:39:46;2.80;;;1.97;;
7517;SDS011;3800;48.922;9.444;2022-09-09T00:42:20;2.23;;;1.80;;
7517;SDS011;3800;48.922;9.444;2022-09-09T00:44:53;3.17;;;1.80;;
7517;SDS011;3800;48.922;9.444;2022-09-09T00:47:28;3.67;;;2.00;;
7517;SDS011;3800;48.922;9.444;2022-09-09T00:50:12;3.67;;;1.80;;
7517;SDS011;3800;48.922;9.444;2022-09-09T00:53:12;2.97;;;1.90;;
7517;SDS011;3800;48.922;9.444;2022-09-09T00:55:47;4.63;;;1.83;;
7517;SDS011;3800;48.922;9.444;2022-09-09T00:58:29;2.20;;;1.63;;
7517;SDS011;3800;48.922;9.444;2022-09-09T01:01:02;2.63;;;1.90;;
7517;SDS011;3800;48.922;9.444;2022-09-09T01:03:35;3.50;;;1.90;;
7517;SDS011;3800;48.922;9.444;2022-09-09T01:06:12;3.67;;;2.10;;
7517;SDS011;3800;48.922;9.444;2022-09-09T01:08:43;2.53;;;1.87;;
7517;SDS011;3800;48.922;9.444;2022-09-09T01:11:16;3.50;;;1.83;;
7517;SDS011;3800;48.922;9.444;2022-09-09T01:14:01;7.10;;;2.00;;
7517;SDS011;3800;48.922;9.444;2022-09-09T01:16:30;2.90;;;1.80;;
7517;SDS011;3800;48.922;9.444;2022-09-09T01:18:58;2.80;;;1.70;;
7517;SDS011;3800;48.922;9.444;2022-09-09T01:21:32;1.80;;;1.60;;
7517;SDS011;3800;48.922;9.444;2022-09-09T01:24:27;4.57;;;2.00;;
7517;SDS011;3800;48.922;9.444;2022-09-09T01:27:09;2.10;;;1.60;;
7517;SDS011;3800;48.922;9.444;2022-09-09T01:29:38;2.00;;;1.80;;
7517;SDS011;3800;48.922;9.444;2022-09-09T01:34:52;2.63;;;1.90;;
7517;SDS011;3800;48.922;9.444;2022-09-09T01:37:20;2.77;;;2.00;;
7517;SDS011;3800;48.922;9.444;2022-09-09T01:39:48;3.67;;;1.90;;
7517;SDS011;3800;48.922;9.444;2022-09-09T01:42:17;2.67;;;1.90;;
7517;SDS011;3800;48.922;9.444;2022-09-09T01:44:46;2.93;;;1.60;;
7517;SDS011;3800;48.922;9.444;2022-09-09T01:47:14;4.13;;;1.83;;
7517;SDS011;3800;48.922;9.444;2022-09-09T01:49:42;2.10;;;1.90;;
7517;SDS011;3800;48.922;9.444;2022-09-09T01:52:11;2.40;;;1.90;;
7517;SDS011;3800;48.922;9.444;2022-09-09T01:54:41;2.37;;;2.00;;
7517;SDS011;3800;48.922;9.444;2022-09-09T01:57:13;4.90;;;2.20;;
7517;SDS011;3800;48.922;9.444;2022-09-09T02:05:19;2.87;;;1.63;;
7517;SDS011;3800;48.922;9.444;2022-09-09T02:08:00;4.03;;;2.00;;
7517;SDS011;3800;48.922;9.444;2022-09-09T02:10:45;2.43;;;1.80;;
7517;SDS011;3800;48.922;9.444;2022-09-09T02:13:26;2.73;;;1.80;;
7517;SDS011;3800;48.922;9.444;2022-09-09T02:15:56;1.87;;;1.60;;
7517;SDS011;3800;48.922;9.444;2022-09-09T02:18:25;2.37;;;1.70;;
7517;SDS011;3800;48.922;9.444;2022-09-09T02:20:56;2.50;;;1.73;;
7517;SDS011;3800;48.922;9.444;2022-09-09T02:23:25;5.03;;;1.80;;
7517;SDS011;3800;48.922;9.444;2022-09-09T02:25:53;2.90;;;1.93;;
7517;SDS011;3800;48.922;9.444;2022-09-09T02:28:21;2.20;;;1.80;;
7517;SDS011;3800;48.922;9.444;2022-09-09T02:30:50;2.47;;;1.60;;
7517;SDS011;3800;48.922;9.444;2022-09-09T02:33:22;4.60;;;1.87;;
7517;SDS011;3800;48.922;9.444;2022-09-09T02:35:50;4.10;;;2.20;;
7517;SDS011;3800;48.922;9.444;2022-09-09T02:38:18;2.50;;;1.80;;
7517;SDS011;3800;48.922;9.444;2022-09-09T02:40:47;3.43;;;2.00;;
7517;SDS011;3800;48.922;9.444;2022-09-09T02:43:15;3.30;;;2.00;;
7517;SDS011;3800;48.922;9.444;2022-09-09T02:45:49;3.67;;;2.03;;
7517;SDS011;3800;48.922;9.444;2022-09-09T02:48:21;3.10;;;1.93;;
7517;SDS011;3800;48.922;9.444;2022-09-09T02:53:24;2.10;;;1.90;;
7517;SDS011;3800;48.922;9.444;2022-09-09T02:55:56;2.43;;;2.10;;
7517;SDS011;3800;48.922;9.444;2022-09-09T02:58:36;2.90;;;2.10;;
7517;SDS011;3800;48.922;9.444;2022-09-09T03:01:04;2.50;;;2.00;;
7517;SDS011;3800;48.922;9.444;2022-09-09T03:03:33;2.43;;;2.03;;
7517;SDS011;3800;48.922;9.444;2022-09-09T03:06:02;3.20;;;2.00;;
7517;SDS011;3800;48.922;9.444;2022-09-09T03:08:30;3.47;;;2.00;;
7517;SDS011;3800;48.922;9.444;2022-09-09T03:10:58;1.90;;;1.70;;
7517;SDS011;3800;48.922;9.444;2022-09-09T03:13:27;2.47;;;1.90;;
7517;SDS011;3800;48.922;9.444;2022-09-09T03:15:55;3.73;;;2.03;;
7517;SDS011;3800;48.922;9.444;2022-09-09T03:18:23;3.20;;;1.90;;
7517;SDS011;3800;48.922;9.444;2022-09-09T03:20:52;3.27;;;1.77;;
7517;SDS011;3800;48.922;9.444;2022-09-09T03:23:20;2.90;;;1.97;;
7517;SDS011;3800;48.922;9.444;2022-09-09T03:25:49;3.73;;;2.10;;
7517;SDS011;3800;48.922;9.444;2022-09-09T03:28:17;3.67;;;2.13;;
7517;SDS011;3800;48.922;9.444;2022-09-09T03:30:45;3.87;;;2.17;;
7517;SDS011;3800;48.922;9.444;2022-09-09T03:33:14;2.60;;;2.10;;
7517;SDS011;3800;48.922;9.444;2022-09-09T03:35:45;3.13;;;2.20;;
7517;SDS011;3800;48.922;9.444;2022-09-09T03:38:14;3.53;;;2.37;;
7517;SDS011;3800;48.922;9.444;2022-09-09T03:40:48;2.83;;;2.07;;
7517;SDS011;3800;48.922;9.444;2022-09-09T03:43:17;2.27;;;1.83;;
7517;SDS011;3800;48.922;9.444;2022-09-09T03:45:46;3.83;;;1.90;;
7517;SDS011;3800;48.922;9.444;2022-09-09T03:48:16;2.67;;;1.67;;
7517;SDS011;3800;48.922;9.444;2022-09-09T03:50:45;3.47;;;1.97;;
7517;SDS011;3800;48.922;9.444;2022-09-09T03:53:14;2.30;;;1.90;;
7517;SDS011;3800;48.922;9.444;2022-09-09T03:55:43;4.80;;;2.17;;
7517;SDS011;3800;48.922;9.444;2022-09-09T03:58:14;3.57;;;2.20;;
7517;SDS011;3800;48.922;9.444;2022-09-09T04:00:42;3.10;;;2.17;;
7517;SDS011;3800;48.922;9.444;2022-09-09T04:03:11;3.43;;;2.20;;
7517;SDS011;3800;48.922;9.444;2022-09-09T04:05:39;4.00;;;2.10;;
7517;SDS011;3800;48.922;9.444;2022-09-09T04:08:07;3.17;;;1.90;;
7517;SDS011;3800;48.922;9.444;2022-09-09T04:10:35;3.67;;;2.37;;
7517;SDS011;3800;48.922;9.444;2022-09-09T04:13:04;5.50;;;2.10;;
7517;SDS011;3800;48.922;9.444;2022-09-09T04:15:32;3.33;;;2.10;;
7517;SDS011;3800;48.922;9.444;2022-09-09T04:18:01;3.43;;;1.90;;
7517;SDS011;3800;48.922;9.444;2022-09-09T04:20:29;2.40;;;1.83;;
7517;SDS011;3800;48.922;9.444;2022-09-09T04:22:57;2.67;;;1.80;;
7517;SDS011;3800;48.922;9.444;2022-09-09T04:25:26;3.03;;;2.13;;
7517;SDS011;3800;48.922;9.444;2022-09-09T04:27:54;3.30;;;2.10;;
7517;SDS011;3800;48.922;9.444;2022-09-09T04:30:23;2.40;;;1.90;;
7517;SDS011;3800;48.922;9.444;2022-09-09T04:32:51;2.60;;;1.73;;
7517;SDS011;3800;48.922;9.444;2022-09-09T04:35:19;6.43;;;2.23;;
7517;SDS011;3800;48.922;9.444;2022-09-09T04:37:48;2.73;;;1.90;;
7517;SDS011;3800;48.922;9.444;2022-09-09T04:40:16;4.23;;;2.10;;
7517;SDS011;3800;48.922;9.444;2022-09-09T04:42:44;3.53;;;2.10;;
7517;SDS011;3800;48.922;9.444;2022-09-09T04:45:12;3.43;;;2.17;;
7517;SDS011;3800;48.922;9.444;2022-09-09T04:47:42;4.00;;;2.30;;
7517;SDS011;3800;48.922;9.444;2022-09-09T04:50:10;4.33;;;2.37;;
7517;SDS011;3800;48.922;9.444;2022-09-09T04:52:39;3.67;;;2.07;;
7517;SDS011;3800;48.922;9.444;2022-09-09T04:55:07;5.07;;;1.90;;
7517;SDS011;3800;48.922;9.444;2022-09-09T04:57:36;3.40;;;2.10;;
7517;SDS011;3800;48.922;9.444;2022-09-09T05:00:04;3.37;;;2.37;;
7517;SDS011;3800;48.922;9.444;2022-09-09T05:02:36;3.73;;;1.97;;
7517;SDS011;3800;48.922;9.444;2022-09-09T05:05:05;4.17;;;1.80;;
7517;SDS011;3800;48.922;9.444;2022-09-09T05:07:34;2.60;;;1.90;;
7517;SDS011;3800;48.922;9.444;2022-09-09T05:10:04;3.60;;;2.23;;
7517;SDS011;3800;48.922;9.444;2022-09-09T05:12:34;4.70;;;2.10;;
7517;SDS011;3800;48.922;9.444;2022-09-09T05:15:02;4.23;;;1.90;;
7517;SDS011;3800;48.922;9.444;2022-09-09T05:17:31;3.83;;;1.97;;
7517;SDS011;3800;48.922;9.444;2022-09-09T05:19:59;2.97;;;2.07;;
7517;SDS011;3800;48.922;9.444;2022-09-09T05:22:28;4.43;;;2.10;;
7517;SDS011;3800;48.922;9.444;2022-09-09T05:24:56;4.90;;;2.10;;
7517;SDS011;3800;48.922;9.444;2022-09-09T05:27:25;2.63;;;2.00;;
7517;SDS011;3800;48.922;9.444;2022-09-09T05:29:54;2.13;;;1.80;;
7517;SDS011;3800;48.922;9.444;2022-09-09T05:32:22;3.07;;;2.00;;
7517;SDS011;3800;48.922;9.444;2022-09-09T05:34:50;3.47;;;1.97;;
7517;SDS011;3800;48.922;9.444;2022-09-09T05:37:18;2.00;;;1.80;;
7517;SDS011;3800;48.922;9.444;2022-09-09T05:39:47;2.90;;;1.80;;
7517;SDS011;3800;48.922;9.444;2022-09-09T05:42:16;4.23;;;1.87;;
7517;SDS011;3800;48.922;9.444;2022-09-09T05:44:44;3.10;;;1.90;;
7517;SDS011;3800;48.922;9.444;2022-09-09T05:47:12;5.50;;;1.93;;
7517;SDS011;3800;48.922;9.444;2022-09-09T05:49:41;2.73;;;2.07;;
7517;SDS011;3800;48.922;9.444;2022-09-09T05:52:09;2.93;;;2.20;;
7517;SDS011;3800;48.922;9.444;2022-09-09T05:54:37;3.40;;;2.20;;
7517;SDS011;3800;48.922;9.444;2022-09-09T05:57:05;4.37;;;2.10;;
7517;SDS011;3800;48.922;9.444;2022-09-09T05:59:34;2.43;;;1.90;;
7517;SDS011;3800;48.922;9.444;2022-09-09T06:02:03;6.37;;;2.30;;
7517;SDS011;3800;48.922;9.444;2022-09-09T06:04:31;3.17;;;2.37;;
7517;SDS011;3800;48.922;9.444;2022-09-09T06:07:00;4.03;;;2.00;;
7517;SDS011;3800;48.922;9.444;2022-09-09T06:09:29;4.90;;;2.53;;
7517;SDS011;3800;48.922;9.444;2022-09-09T06:11:58;4.10;;;2.20;;
7517;SDS011;3800;48.922;9.444;2022-09-09T06:14:26;3.77;;;2.30;;
7517;SDS011;3800;48.922;9.444;2022-09-09T06:16:55;5.40;;;2.20;;
7517;SDS011;3800;48.922;9.444;2022-09-09T06:19:23;4.17;;;2.20;;
7517;SDS011;3800;48.922;9.444;2022-09-09T06:21:52;5.87;;;2.10;;
7517;SDS011;3800;48.922;9.444;2022-09-09T06:24:20;3.33;;;2.20;;
7517;SDS011;3800;48.922;9.444;2022-09-09T06:26:48;6.77;;;2.30;;
7517;SDS011;3800;48.922;9.444;2022-09-09T06:29:16;5.10;;;2.10;;
7517;SDS011;3800;48.922;9.444;2022-09-09T06:31:45;3.80;;;2.00;;
7517;SDS011;3800;48.922;9.444;2022-09-09T06:34:14;4.20;;;2.30;;
7517;SDS011;3800;48.922;9.444;2022-09-09T06:36:42;4.20;;;2.20;;
7517;SDS011;3800;48.922;9.444;2022-09-09T06:39:11;3.23;;;2.10;;
7517;SDS011;3800;48.922;9.444;2022-09-09T06:41:39;3.37;;;2.10;;
7517;SDS011;3800;48.922;9.444;2022-09-09T06:44:09;2.77;;;1.90;;
7517;SDS011;3800;48.922;9.444;2022-09-09T06:46:37;3.83;;;1.80;;
7517;SDS011;3800;48.922;9.444;2022-09-09T06:49:05;3.67;;;1.70;;
7517;SDS011;3800;48.922;9.444;2022-09-09T06:51:34;3.93;;;1.90;;
7517;SDS011;3800;48.922;9.444;2022-09-09T06:54:02;2.63;;;1.73;;
7517;SDS011;3800;48.922;9.444;2022-09-09T06:56:34;4.90;;;1.80;;
7517;SDS011;3800;48.922;9.444;2022-09-09T06:59:02;3.87;;;1.60;;
7517;SDS011;3800;48.922;9.444;2022-09-09T07:01:30;3.77;;;1.90;;
7517;SDS011;3800;48.922;9.444;2022-09-09T07:03:59;4.83;;;1.40;;
7517;SDS011;3800;48.922;9.444;2022-09-09T07:06:28;3.10;;;1.83;;
7517;SDS011;3800;48.922;9.444;2022-09-09T07:08:56;4.27;;;1.73;;
7517;SDS011;3800;48.922;9.444;2022-09-09T07:11:25;3.17;;;1.50;;
7517;SDS011;3800;48.922;9.444;2022-09-09T07:13:53;2.20;;;1.50;;
7517;SDS011;3800;48.922;9.444;2022-09-09T07:16:21;3.57;;;1.40;;
7517;SDS011;3800;48.922;9.444;2022-09-09T07:18:49;2.40;;;1.43;;
7517;SDS011;3800;48.922;9.444;2022-09-09T07:21:17;2.83;;;1.60;;
7517;SDS011;3800;48.922;9.444;2022-09-09T07:23:46;5.40;;;1.47;;
7517;SDS011;3800;48.922;9.444;2022-09-09T07:26:16;4.23;;;1.67;;
7517;SDS011;3800;48.922;9.444;2022-09-09T07:28:44;8.20;;;1.80;;
7517;SDS011;3800;48.922;9.444;2022-09-09T07:31:14;2.50;;;1.30;;
7517;SDS011;3800;48.922;9.444;2022-09-09T07:33:44;3.37;;;1.40;;
7517;SDS011;3800;48.922;9.444;2022-09-09T07:36:14;2.30;;;1.30;;
7517;SDS011;3800;48.922;9.444;2022-09-09T07:38:46;2.77;;;1.70;;
7517;SDS011;3800;48.922;9.444;2022-09-09T07:41:15;7.73;;;2.17;;
7517;SDS011;3800;48.922;9.444;2022-09-09T07:43:43;3.43;;;1.67;;
7517;SDS011;3800;48.922;9.444;2022-09-09T07:46:11;3.93;;;1.30;;
7517;SDS011;3800;48.922;9.444;2022-09-09T07:48:43;2.83;;;1.30;;
7517;SDS011;3800;48.922;9.444;2022-09-09T07:51:09;2.90;;;1.37;;
7517;SDS011;3800;48.922;9.444;2022-09-09T07:53:37;3.47;;;1.43;;
7517;SDS011;3800;48.922;9.444;2022-09-09T07:56:06;6.83;;;1.60;;
7517;SDS011;3800;48.922;9.444;2022-09-09T07:58:35;4.30;;;1.63;;
7517;SDS011;3800;48.922;9.444;2022-09-09T08:01:07;3.97;;;1.50;;
7517;SDS011;3800;48.922;9.444;2022-09-09T08:03:36;4.00;;;1.60;;
7517;SDS011;3800;48.922;9.444;2022-09-09T08:06:05;2.10;;;1.40;;
7517;SDS011;3800;48.922;9.444;2022-09-09T08:08:33;3.37;;;1.50;;
7517;SDS011;3800;48.922;9.444;2022-09-09T08:11:04;4.10;;;1.30;;
7517;SDS011;3800;48.922;9.444;2022-09-09T08:13:33;3.70;;;1.40;;
7517;SDS011;3800;48.922;9.444;2022-09-09T08:16:05;3.73;;;1.50;;
7517;SDS011;3800;48.922;9.444;2022-09-09T08:18:34;5.17;;;1.53;;
7517;SDS011;3800;48.922;9.444;2022-09-09T08:21:05;3.90;;;1.30;;
7517;SDS011;3800;48.922;9.444;2022-09-09T08:23:40;3.43;;;1.40;;
7517;SDS011;3800;48.922;9.444;2022-09-09T08:26:11;3.77;;;1.50;;
7517;SDS011;3800;48.922;9.444;2022-09-09T08:28:40;2.13;;;1.30;;
7517;SDS011;3800;48.922;9.444;2022-09-09T08:31:09;2.53;;;1.30;;
7517;SDS011;3800;48.922;9.444;2022-09-09T08:33:38;4.27;;;1.27;;
7517;SDS011;3800;48.922;9.444;2022-09-09T08:36:06;3.07;;;1.20;;
7517;SDS011;3800;48.922;9.444;2022-09-09T08:38:35;6.53;;;1.40;;
7517;SDS011;3800;48.922;9.444;2022-09-09T08:41:24;5.50;;;1.27;;
7517;SDS011;3800;48.922;9.444;2022-09-09T08:44:01;4.20;;;1.30;;
7517;SDS011;3800;48.922;9.444;2022-09-09T08:47:54;2.90;;;1.37;;
7517;SDS011;3800;48.922;9.444;2022-09-09T08:49:43;3.77;;;1.50;;
7517;SDS011;3800;48.922;9.444;2022-09-09T08:52:17;4.93;;;1.23;;
7517;SDS011;3800;48.922;9.444;2022-09-09T08:54:45;3.07;;;1.37;;
7517;SDS011;3800;48.922;9.444;2022-09-09T08:57:14;3.83;;;1.30;;
7517;SDS011;3800;48.922;9.444;2022-09-09T08:59:42;3.40;;;1.20;;
7517;SDS011;3800;48.922;9.444;2022-09-09T09:02:15;5.53;;;1.40;;
7517;SDS011;3800;48.922;9.444;2022-09-09T09:05:58;2.83;;;1.50;;
7517;SDS011;3800;48.922;9.444;2022-09-09T09:07:43;5.17;;;1.80;;
7517;SDS011;3800;48.922;9.444;2022-09-09T09:10:20;3.47;;;1.50;;
7517;SDS011;3800;48.922;9.444;2022-09-09T09:12:46;2.97;;;1.10;;
7517;SDS011;3800;48.922;9.444;2022-09-09T09:15:17;3.73;;;1.30;;
7517;SDS011;3800;48.922;9.444;2022-09-09T09:17:44;8.67;;;1.60;;
7517;SDS011;3800;48.922;9.444;2022-09-09T09:20:14;2.90;;;1.30;;
7517;SDS011;3800;48.922;9.444;2022-09-09T09:22:45;3.90;;;1.20;;
7517;SDS011;3800;48.922;9.444;2022-09-09T09:25:21;4.77;;;1.70;;
7517;SDS011;3800;48.922;9.444;2022-09-09T09:28:00;3.33;;;1.40;;
7517;SDS011;3800;48.922;9.444;2022-09-09T09:30:44;3.40;;;1.40;;
7517;SDS011;3800;48.922;9.444;2022-09-09T09:33:16;3.73;;;1.30;;
7517;SDS011;3800;48.922;9.444;2022-09-09T09:35:43;52.33;;;5.67;;
7517;SDS011;3800;48.922;9.444;2022-09-09T09:38:19;3.30;;;1.43;;
7517;SDS011;3800;48.922;9.444;2022-09-09T09:40:49;7.50;;;1.70;;
7517;SDS011;3800;48.922;9.444;2022-09-09T09:43:19;4.73;;;1.50;;
7517;SDS011;3800;48.922;9.444;2022-09-09T09:45:46;4.30;;;1.20;;
7517;SDS011;3800;48.922;9.444;2022-09-09T09:48:14;8.63;;;1.67;;
7517;SDS011;3800;48.922;9.444;2022-09-09T09:50:47;6.97;;;1.57;;
7517;SDS011;3800;48.922;9.444;2022-09-09T09:53:25;3.67;;;1.30;;
7517;SDS011;3800;48.922;9.444;2022-09-09T09:55:55;2.30;;;1.20;;
7517;SDS011;3800;48.922;9.444;2022-09-09T09:58:25;5.07;;;1.50;;
7517;SDS011;3800;48.922;9.444;2022-09-09T10:00:53;8.13;;;1.77;;
7517;SDS011;3800;48.922;9.444;2022-09-09T10:03:23;10.73;;;1.90;;
7517;SDS011;3800;48.922;9.444;2022-09-09T10:05:51;7.47;;;2.00;;
7517;SDS011;3800;48.922;9.444;2022-09-09T10:08:19;12.67;;;2.20;;
7517;SDS011;3800;48.922;9.444;2022-09-09T10:11:09;4.90;;;1.20;;
7517;SDS011;3800;48.922;9.444;2022-09-09T10:16:38;14.53;;;2.27;;
7517;SDS011;3800;48.922;9.444;2022-09-09T10:19:09;9.67;;;1.90;;
7517;SDS011;3800;48.922;9.444;2022-09-09T10:21:46;4.93;;;1.60;;
7517;SDS011;3800;48.922;9.444;2022-09-09T10:27:10;3.53;;;0.97;;
7517;SDS011;3800;48.922;9.444;2022-09-09T10:29:44;4.67;;;1.17;;
7517;SDS011;3800;48.922;9.444;2022-09-09T10:32:22;2.20;;;1.00;;
7517;SDS011;3800;48.922;9.444;2022-09-09T10:35:12;2.67;;;1.00;;
7517;SDS011;3800;48.922;9.444;2022-09-09T10:38:23;2.93;;;1.00;;
7517;SDS011;3800;48.922;9.444;2022-09-09T10:40:43;2.60;;;0.93;;
7517;SDS011;3800;48.922;9.444;2022-09-09T10:43:31;2.13;;;1.00;;
7517;SDS011;3800;48.922;9.444;2022-09-09T10:46:09;3.47;;;1.27;;
7517;SDS011;3800;48.922;9.444;2022-09-09T10:48:48;3.17;;;1.20;;
7517;SDS011;3800;48.922;9.444;2022-09-09T10:51:42;5.80;;;1.20;;
7517;SDS011;3800;48.922;9.444;2022-09-09T10:54:41;3.43;;;1.10;;
7517;SDS011;3800;48.922;9.444;2022-09-09T10:57:17;3.23;;;1.10;;
7517;SDS011;3800;48.922;9.444;2022-09-09T10:59:46;3.43;;;0.80;;
7517;SDS011;3800;48.922;9.444;2022-09-09T11:02:16;3.63;;;1.03;;
7517;SDS011;3800;48.922;9.444;2022-09-09T11:04:48;1.57;;;0.87;;
7517;SDS011;3800;48.922;9.444;2022-09-09T11:07:21;2.67;;;1.17;;
7517;SDS011;3800;48.922;9.444;2022-09-09T11:09:48;1.87;;;0.90;;
7517;SDS011;3800;48.922;9.444;2022-09-09T11:12:15;3.03;;;1.30;;
7517;SDS011;3800;48.922;9.444;2022-09-09T11:14:43;2.33;;;1.20;;
7517;SDS011;3800;48.922;9.444;2022-09-09T11:17:12;4.00;;;1.30;;
7517;SDS011;3800;48.922;9.444;2022-09-09T11:19:43;2.63;;;1.00;;
7517;SDS011;3800;48.922;9.444;2022-09-09T11:24:59;3.57;;;1.17;;
7517;SDS011;3800;48.922;9.444;2022-09-09T11:27:43;2.03;;;1.20;;
7517;SDS011;3800;48.922;9.444;2022-09-09T11:30:18;3.90;;;1.10;;
7517;SDS011;3800;48.922;9.444;2022-09-09T11:38:44;4.17;;;1.23;;
7517;SDS011;3800;48.922;9.444;2022-09-09T11:41:14;2.50;;;1.30;;
7517;SDS011;3800;48.922;9.444;2022-09-09T11:43:44;3.47;;;1.20;;
7517;SDS011;3800;48.922;9.444;2022-09-09T11:46:15;3.90;;;1.30;;
7517;SDS011;3800;48.922;9.444;2022-09-09T11:48:43;3.17;;;1.30;;
7517;SDS011;3800;48.922;9.444;2022-09-09T11:51:12;5.43;;;1.40;;
7517;SDS011;3800;48.922;9.444;2022-09-09T11:56:25;9.67;;;1.90;;
7517;SDS011;3800;48.922;9.444;2022-09-09T11:59:00;5.27;;;1.40;;
7517;SDS011;3800;48.922;9.444;2022-09-09T12:04:13;3.17;;;1.50;;
7517;SDS011;3800;48.922;9.444;2022-09-09T12:06:46;4.87;;;1.60;;
7517;SDS011;3800;48.922;9.444;2022-09-09T12:09:21;7.93;;;1.77;;
7517;SDS011;3800;48.922;9.444;2022-09-09T12:11:50;5.10;;;1.90;;
7517;SDS011;3800;48.922;9.444;2022-09-09T12:14:19;3.07;;;1.50;;
7517;SDS011;3800;48.922;9.444;2022-09-09T12:17:09;4.37;;;1.83;;
7517;SDS011;3800;48.922;9.444;2022-09-09T12:19:45;5.43;;;1.40;;
7517;SDS011;3800;48.922;9.444;2022-09-09T12:22:17;6.60;;;1.80;;
7517;SDS011;3800;48.922;9.444;2022-09-09T12:25:04;3.60;;;1.60;;
7517;SDS011;3800;48.922;9.444;2022-09-09T12:27:44;7.40;;;2.20;;
7517;SDS011;3800;48.922;9.444;2022-09-09T12:30:14;7.73;;;2.13;;
7517;SDS011;3800;48.922;9.444;2022-09-09T12:32:43;6.40;;;1.80;;
7517;SDS011;3800;48.922;9.444;2022-09-09T12:35:13;5.33;;;1.70;;
7517;SDS011;3800;48.922;9.444;2022-09-09T12:37:49;5.30;;;1.53;;
7517;SDS011;3800;48.922;9.444;2022-09-09T12:40:22;2.40;;;1.20;;
7517;SDS011;3800;48.922;9.444;2022-09-09T12:42:53;4.37;;;1.40;;
7517;SDS011;3800;48.922;9.444;2022-09-09T12:45:23;3.43;;;1.17;;
7517;SDS011;3800;48.922;9.444;2022-09-09T12:47:56;2.27;;;1.10;;
7517;SDS011;3800;48.922;9.444;2022-09-09T12:50:26;2.03;;;0.80;;
7517;SDS011;3800;48.922;9.444;2022-09-09T12:53:06;2.53;;;1.20;;
7517;SDS011;3800;48.922;9.444;2022-09-09T12:55:35;1.30;;;0.90;;
7517;SDS011;3800;48.922;9.444;2022-09-09T12:58:03;2.00;;;0.90;;
7517;SDS011;3800;48.922;9.444;2022-09-09T13:00:31;1.23;;;0.90;;
7517;SDS011;3800;48.922;9.444;2022-09-09T13:03:00;1.33;;;0.80;;
7517;SDS011;3800;48.922;9.444;2022-09-09T13:05:34;1.43;;;0.80;;
7517;SDS011;3800;48.922;9.444;2022-09-09T13:08:03;1.63;;;0.80;;
7517;SDS011;3800;48.922;9.444;2022-09-09T13:10:32;2.93;;;0.97;;
7517;SDS011;3800;48.922;9.444;2022-09-09T13:13:01;1.53;;;0.93;;
7517;SDS011;3800;48.922;9.444;2022-09-09T13:15:29;3.20;;;0.97;;
7517;SDS011;3800;48.922;9.444;2022-09-09T13:17:59;2.03;;;0.87;;
7517;SDS011;3800;48.922;9.444;2022-09-09T13:20:26;0.90;;;0.70;;
7517;SDS011;3800;48.922;9.444;2022-09-09T13:22:54;2.03;;;0.70;;
7517;SDS011;3800;48.922;9.444;2022-09-09T13:25:26;2.90;;;0.97;;
7517;SDS011;3800;48.922;9.444;2022-09-09T13:27:55;2.03;;;0.80;;
7517;SDS011;3800;48.922;9.444;2022-09-09T13:30:31;2.30;;;0.80;;
7517;SDS011;3800;48.922;9.444;2022-09-09T13:33:00;1.07;;;0.73;;
7517;SDS011;3800;48.922;9.444;2022-09-09T13:35:28;2.50;;;0.80;;
7517;SDS011;3800;48.922;9.444;2022-09-09T13:37:57;2.30;;;0.80;;
7517;SDS011;3800;48.922;9.444;2022-09-09T13:40:25;2.97;;;0.80;;
7517;SDS011;3800;48.922;9.444;2022-09-09T13:42:55;2.30;;;0.97;;
7517;SDS011;3800;48.922;9.444;2022-09-09T13:45:24;1.83;;;1.00;;
7517;SDS011;3800;48.922;9.444;2022-09-09T13:47:53;2.10;;;1.00;;
7517;SDS011;3800;48.922;9.444;2022-09-09T13:50:22;2.80;;;1.00;;
7517;SDS011;3800;48.922;9.444;2022-09-09T13:52:52;2.57;;;1.13;;
7517;SDS011;3800;48.922;9.444;2022-09-09T13:55:21;10.10;;;1.33;;
7517;SDS011;3800;48.922;9.444;2022-09-09T13:57:51;3.43;;;1.00;;
7517;SDS011;3800;48.922;9.444;2022-09-09T14:00:21;1.37;;;0.90;;
7517;SDS011;3800;48.922;9.444;2022-09-09T14:02:49;1.63;;;0.90;;
7517;SDS011;3800;48.922;9.444;2022-09-09T14:05:18;2.07;;;0.90;;
7517;SDS011;3800;48.922;9.444;2022-09-09T14:07:46;2.10;;;1.10;;
7517;SDS011;3800;48.922;9.444;2022-09-09T14:10:14;3.13;;;1.10;;
7517;SDS011;3800;48.922;9.444;2022-09-09T14:12:43;2.33;;;0.90;;
7517;SDS011;3800;48.922;9.444;2022-09-09T14:15:11;1.80;;;0.93;;
7517;SDS011;3800;48.922;9.444;2022-09-09T14:17:40;3.17;;;0.90;;
7517;SDS011;3800;48.922;9.444;2022-09-09T14:20:09;3.53;;;0.70;;
7517;SDS011;3800;48.922;9.444;2022-09-09T14:22:37;2.70;;;0.80;;
7517;SDS011;3800;48.922;9.444;2022-09-09T14:25:05;1.20;;;0.77;;
7517;SDS011;3800;48.922;9.444;2022-09-09T14:27:35;1.50;;;1.10;;
7517;SDS011;3800;48.922;9.444;2022-09-09T14:30:03;2.67;;;0.90;;
7517;SDS011;3800;48.922;9.444;2022-09-09T14:32:32;2.00;;;0.87;;
7517;SDS011;3800;48.922;9.444;2022-09-09T14:35:00;1.23;;;0.80;;
7517;SDS011;3800;48.922;9.444;2022-09-09T14:37:29;2.50;;;1.00;;
7517;SDS011;3800;48.922;9.444;2022-09-09T14:39:58;1.23;;;0.90;;
7517;SDS011;3800;48.922;9.444;2022-09-09T14:42:26;1.27;;;0.73;;
7517;SDS011;3800;48.922;9.444;2022-09-09T14:44:55;1.77;;;1.03;;
7517;SDS011;3800;48.922;9.444;2022-09-09T14:47:24;1.57;;;0.80;;
7517;SDS011;3800;48.922;9.444;2022-09-09T14:49:52;2.13;;;0.80;;
7517;SDS011;3800;48.922;9.444;2022-09-09T14:52:20;2.63;;;0.80;;
7517;SDS011;3800;48.922;9.444;2022-09-09T14:54:49;2.00;;;0.90;;
7517;SDS011;3800;48.922;9.444;2022-09-09T14:57:17;1.57;;;0.80;;
7517;SDS011;3800;48.922;9.444;2022-09-09T14:59:45;2.87;;;1.10;;
7517;SDS011;3800;48.922;9.444;2022-09-09T15:02:13;1.23;;;0.73;;
7517;SDS011;3800;48.922;9.444;2022-09-09T15:04:42;2.17;;;0.90;;
7517;SDS011;3800;48.922;9.444;2022-09-09T15:07:10;2.17;;;1.00;;
7517;SDS011;3800;48.922;9.444;2022-09-09T15:09:38;1.93;;;0.90;;
7517;SDS011;3800;48.922;9.444;2022-09-09T15:12:07;1.37;;;1.10;;
7517;SDS011;3800;48.922;9.444;2022-09-09T15:14:35;2.43;;;0.90;;
7517;SDS011;3800;48.922;9.444;2022-09-09T15:17:04;0.70;;;0.70;;
7517;SDS011;3800;48.922;9.444;2022-09-09T15:19:33;0.93;;;0.70;;
7517;SDS011;3800;48.922;9.444;2022-09-09T15:22:01;0.70;;;0.60;;
7517;SDS011;3800;48.922;9.444;2022-09-09T15:24:29;1.50;;;0.73;;
7517;SDS011;3800;48.922;9.444;2022-09-09T15:26:58;1.77;;;0.80;;
7517;SDS011;3800;48.922;9.444;2022-09-09T15:29:26;3.20;;;0.97;;
7517;SDS011;3800;48.922;9.444;2022-09-09T15:31:54;1.37;;;0.90;;
7517;SDS011;3800;48.922;9.444;2022-09-09T15:34:23;2.20;;;1.00;;
7517;SDS011;3800;48.922;9.444;2022-09-09T15:36:52;0.90;;;0.60;;
7517;SDS011;3800;48.922;9.444;2022-09-09T15:39:21;1.90;;;0.80;;
7517;SDS011;3800;48.922;9.444;2022-09-09T15:41:49;2.03;;;0.80;;
7517;SDS011;3800;48.922;9.444;2022-09-09T15:44:17;1.17;;;0.80;;
7517;SDS011;3800;48.922;9.444;2022-09-09T15:46:48;2.40;;;0.70;;
7517;SDS011;3800;48.922;9.444;2022-09-09T15:49:18;3.87;;;2.13;;
7517;SDS011;3800;48.922;9.444;2022-09-09T15:51:46;2.07;;;0.80;;
7517;SDS011;3800;48.922;9.444;2022-09-09T15:54:15;2.77;;;0.90;;
7517;SDS011;3800;48.922;9.444;2022-09-09T15:56:46;1.83;;;0.80;;
7517;SDS011;3800;48.922;9.444;2022-09-09T15:59:14;1.63;;;0.80;;
7517;SDS011;3800;48.922;9.444;2022-09-09T16:01:42;1.73;;;0.90;;
7517;SDS011;3800;48.922;9.444;2022-09-09T16:04:10;1.40;;;0.80;;
7517;SDS011;3800;48.922;9.444;2022-09-09T16:06:38;1.77;;;0.80;;
7517;SDS011;3800;48.922;9.444;2022-09-09T16:09:07;1.43;;;0.80;;